Time;durP1;ratioP1;P1;durP2;ratioP2;P2;SDS_P1;SDS_P2;PMS_P1;PMS_P2;Temp;Humidity;BMP_temperature;BMP_pressure;BME280_temperature;BME280_humidity;BME280_pressure;Samples;Min_cycle;Max_cycle;Signal;HPM_P1;HPM_P2
2023/08/22 00:00:32;;;;;;;10.67;9.77;;;24.30;99.90;;;;;;5025236;28;20458;-74
2023/08/22 00:02:58;;;;;;;11.27;10.27;;;24.40;99.90;;;;;;5042216;28;20581;-75
2023/08/22 00:05:24;;;;;;;11.33;10.00;;;24.40;99.90;;;;;;5024780;28;20475;-76
2023/08/22 00:07:50;;;;;;;10.40;9.50;;;24.50;99.90;;;;;;5041516;28;20232;-75
2023/08/22 00:10:16;;;;;;;10.50;9.53;;;24.40;99.90;;;;;;5023558;28;21063;-75
2023/08/22 00:12:43;;;;;;;14.23;9.67;;;24.40;99.90;;;;;;5007404;28;20401;-75
2023/08/22 00:15:10;;;;;;;10.30;9.30;;;24.60;99.90;;;;;;5014526;28;20227;-75
2023/08/22 00:17:44;;;;;;;10.40;8.93;;;24.80;99.90;;;;;;5022276;28;20478;-74
2023/08/22 00:20:11;;;;;;;9.97;9.00;;;24.80;99.90;;;;;;5024340;28;20470;-74
2023/08/22 00:22:37;;;;;;;10.80;8.40;;;24.80;99.90;;;;;;5023449;28;20470;-74
2023/08/22 00:25:04;;;;;;;9.97;8.90;;;24.80;99.90;;;;;;5023564;28;20950;-76
2023/08/22 00:27:30;;;;;;;9.43;8.60;;;24.90;99.90;;;;;;5025114;28;20773;-74
2023/08/22 00:29:57;;;;;;;9.13;8.40;;;24.90;99.90;;;;;;5023784;28;20468;-75
2023/08/22 00:32:23;;;;;;;10.50;9.40;;;24.90;99.90;;;;;;5021820;28;20470;-75
2023/08/22 00:34:49;;;;;;;11.43;9.37;;;24.50;99.90;;;;;;5023863;28;20477;-74
2023/08/22 00:37:15;;;;;;;10.70;9.77;;;24.30;99.90;;;;;;5022682;28;20463;-75
2023/08/22 00:39:41;;;;;;;9.80;8.93;;;24.40;99.90;;;;;;5024594;28;20238;-75
2023/08/22 00:42:06;;;;;;;10.77;8.33;;;24.50;99.90;;;;;;5022051;28;20219;-74
2023/08/22 00:44:32;;;;;;;11.63;10.53;;;24.10;99.90;;;;;;5024954;28;20432;-75
2023/08/22 00:46:58;;;;;;;12.20;9.50;;;23.70;99.90;;;;;;5038869;28;20236;-74
2023/08/22 00:49:25;;;;;;;11.40;9.60;;;23.60;99.90;;;;;;5022548;28;20219;-75
2023/08/22 00:51:52;;;;;;;10.40;9.40;;;23.70;99.90;;;;;;5038990;28;20520;-74
2023/08/22 00:54:19;;;;;;;11.43;9.00;;;23.70;99.90;;;;;;5038939;28;20453;-74
2023/08/22 00:56:45;;;;;;;10.30;9.40;;;23.90;99.90;;;;;;5024205;28;20917;-75
2023/08/22 00:59:11;;;;;;;10.90;8.90;;;24.20;99.90;;;;;;5021802;28;21111;-74
2023/08/22 01:01:37;;;;;;;9.87;8.97;;;24.40;99.90;;;;;;5021543;28;20466;-74
2023/08/22 01:04:03;;;;;;;9.83;8.90;;;24.60;99.90;;;;;;5021262;28;20475;-75
2023/08/22 01:06:54;;;;;;;10.17;9.17;;;24.60;99.90;;;;;;5037361;28;20230;-75
2023/08/22 01:09:31;;;;;;;10.87;8.30;;;24.40;99.90;;;;;;5020385;28;20521;-75
2023/08/22 01:12:21;;;;;;;8.97;8.27;;;24.10;99.90;;;;;;5036905;28;20542;-75
2023/08/22 01:14:55;;;;;;;9.67;8.60;;;24.10;99.90;;;;;;5036669;28;20461;-75
2023/08/22 01:17:22;;;;;;;8.90;8.10;;;24.30;99.90;;;;;;5006826;28;20457;-75
2023/08/22 01:19:48;;;;;;;10.83;9.73;;;24.50;99.90;;;;;;5022259;28;20474;-74
2023/08/22 01:22:16;;;;;;;11.77;8.83;;;24.60;99.90;;;;;;5005950;28;20462;-75
2023/08/22 01:24:42;;;;;;;11.33;8.87;;;24.60;99.90;;;;;;4991764;28;20515;-74
2023/08/22 01:27:12;;;;;;;9.03;8.23;;;24.70;99.90;;;;;;5023157;28;20223;-74
2023/08/22 01:29:46;;;;;;;10.70;7.73;;;24.60;99.90;;;;;;5004801;28;20466;-74
2023/08/22 01:32:23;;;;;;;10.30;9.23;;;24.60;99.90;;;;;;5028034;28;21002;-75
2023/08/22 01:34:53;;;;;;;10.13;9.13;;;24.60;99.90;;;;;;5001720;28;20581;-75
2023/08/22 01:37:21;;;;;;;9.93;8.93;;;24.60;99.90;;;;;;5023257;28;21216;-74
2023/08/22 01:39:48;;;;;;;11.13;9.87;;;24.60;99.90;;;;;;5020273;28;20481;-74
2023/08/22 01:42:15;;;;;;;9.40;8.50;;;24.40;99.90;;;;;;5021801;28;20538;-75
2023/08/22 01:44:40;;;;;;;11.13;8.67;;;24.30;99.90;;;;;;5005239;28;20938;-74
2023/08/22 01:47:06;;;;;;;9.30;8.50;;;24.30;99.90;;;;;;5003730;28;20301;-74
2023/08/22 01:49:35;;;;;;;12.10;9.20;;;24.40;99.90;;;;;;5004808;28;20251;-74
2023/08/22 01:52:01;;;;;;;9.67;8.80;;;24.40;99.90;;;;;;5022020;28;20290;-75
2023/08/22 01:54:27;;;;;;;10.40;8.93;;;24.40;99.90;;;;;;5004209;28;20904;-75
2023/08/22 01:56:52;;;;;;;9.60;8.00;;;24.40;99.90;;;;;;5004603;28;20378;-75
2023/08/22 01:59:18;;;;;;;10.00;8.40;;;24.40;99.90;;;;;;5003940;28;20215;-75
2023/08/22 02:01:44;;;;;;;11.33;8.67;;;24.40;99.90;;;;;;5018250;28;20255;-75
2023/08/22 02:04:10;;;;;;;10.60;9.60;;;24.30;99.90;;;;;;5002432;28;20352;-75
2023/08/22 02:06:35;;;;;;;10.93;9.30;;;24.30;99.90;;;;;;5004662;28;20232;-75
2023/08/22 02:09:01;;;;;;;14.57;9.40;;;24.30;99.90;;;;;;5004479;28;20234;-74
2023/08/22 02:11:26;;;;;;;10.80;9.80;;;24.30;99.90;;;;;;5023438;28;20224;-75
2023/08/22 02:13:52;;;;;;;10.50;9.47;;;24.40;99.90;;;;;;5002665;28;20223;-75
2023/08/22 02:16:18;;;;;;;10.00;9.00;;;24.30;99.90;;;;;;5006072;28;20816;-75
2023/08/22 02:18:44;;;;;;;10.10;9.10;;;24.30;99.90;;;;;;5019665;28;20722;-75
2023/08/22 02:21:10;;;;;;;9.13;8.23;;;24.30;99.90;;;;;;5018895;28;20224;-75
2023/08/22 02:23:36;;;;;;;10.57;9.23;;;24.30;99.90;;;;;;5005172;28;21035;-73
2023/08/22 02:26:01;;;;;;;9.73;8.83;;;24.30;99.90;;;;;;4989433;28;20248;-74
2023/08/22 02:28:27;;;;;;;10.93;9.83;;;24.20;99.90;;;;;;5002374;28;20230;-74
2023/08/22 02:30:56;;;;;;;11.73;10.53;;;24.10;99.90;;;;;;5020790;28;20219;-75
2023/08/22 02:33:22;;;;;;;11.63;10.00;;;23.50;99.90;;;;;;5003678;28;20231;-75
2023/08/22 02:35:48;;;;;;;11.67;10.50;;;23.30;99.90;;;;;;5021469;28;20472;-74
2023/08/22 02:38:16;;;;;;;10.60;9.60;;;23.10;99.90;;;;;;5003536;28;20518;-74
2023/08/22 02:40:41;;;;;;;10.77;9.77;;;23.40;99.90;;;;;;5022240;28;20458;-75
2023/08/22 02:43:07;;;;;;;11.43;9.97;;;23.70;99.90;;;;;;5002570;28;20222;-75
2023/08/22 02:45:32;;;;;;;11.17;9.83;;;23.70;99.90;;;;;;4998544;28;20216;-75
2023/08/22 02:47:58;;;;;;;11.47;10.37;;;23.40;99.90;;;;;;5021517;28;20232;-75
2023/08/22 02:50:24;;;;;;;12.23;11.07;;;23.50;99.90;;;;;;5002513;28;20254;-74
2023/08/22 02:52:50;;;;;;;10.83;9.73;;;23.70;99.90;;;;;;5019105;28;20310;-75
2023/08/22 02:55:18;;;;;;;12.60;10.20;;;23.70;99.90;;;;;;5004291;28;20226;-75
2023/08/22 02:57:44;;;;;;;11.50;10.40;;;23.40;99.90;;;;;;5037076;28;20471;-74
2023/08/22 03:00:11;;;;;;;12.07;10.90;;;23.30;99.90;;;;;;5001424;28;20561;-74
2023/08/22 03:02:37;;;;;;;11.43;10.43;;;23.10;99.90;;;;;;5020651;28;20948;-74
2023/08/22 03:05:07;;;;;;;11.37;10.37;;;23.10;99.90;;;;;;5036515;28;20462;-74
2023/08/22 03:07:33;;;;;;;11.07;9.93;;;23.30;99.90;;;;;;5018839;28;20486;-74
2023/08/22 03:09:58;;;;;;;10.97;9.97;;;23.40;99.90;;;;;;5004333;28;21026;-74
2023/08/22 03:12:24;;;;;;;12.80;10.57;;;23.40;99.90;;;;;;5020329;28;20230;-74
2023/08/22 03:14:50;;;;;;;10.67;9.73;;;23.60;99.90;;;;;;5037249;28;20263;-75
2023/08/22 03:17:16;;;;;;;10.63;9.70;;;23.70;99.90;;;;;;5005088;28;20231;-75
2023/08/22 03:19:42;;;;;;;10.80;9.77;;;23.90;99.90;;;;;;5004407;28;20349;-74
2023/08/22 03:22:08;;;;;;;12.50;10.20;;;23.90;99.90;;;;;;5035520;28;20457;-74
2023/08/22 03:24:35;;;;;;;10.70;9.20;;;24.00;99.90;;;;;;5006066;28;20469;-75
2023/08/22 03:27:01;;;;;;;10.87;9.83;;;24.00;99.90;;;;;;5022921;28;20624;-75
2023/08/22 03:29:27;;;;;;;9.80;8.90;;;24.00;99.90;;;;;;5040412;28;20365;-74
2023/08/22 03:31:55;;;;;;;10.00;9.10;;;23.90;99.90;;;;;;5008178;28;20293;-75
2023/08/22 03:34:21;;;;;;;10.33;9.37;;;23.80;99.90;;;;;;5006907;28;21155;-74
2023/08/22 03:36:47;;;;;;;10.67;9.77;;;23.60;99.90;;;;;;5007481;28;20494;-74
2023/08/22 03:39:14;;;;;;;10.37;9.47;;;23.50;99.90;;;;;;5022407;28;20454;-75
2023/08/22 03:41:39;;;;;;;9.37;8.60;;;23.30;99.90;;;;;;5008680;28;20493;-75
2023/08/22 03:44:05;;;;;;;9.77;8.87;;;23.50;99.90;;;;;;5022306;28;20895;-74
2023/08/22 03:46:31;;;;;;;9.90;9.00;;;23.30;99.90;;;;;;5021737;28;20213;-74
2023/08/22 03:48:56;;;;;;;10.07;9.07;;;23.10;99.90;;;;;;5039204;28;20224;-75
2023/08/22 03:51:22;;;;;;;9.73;8.83;;;22.80;99.90;;;;;;4989973;28;20281;-74
2023/08/22 03:53:48;;;;;;;8.90;8.00;;;22.60;99.90;;;;;;5023117;28;20306;-75
2023/08/22 03:56:14;;;;;;;9.33;8.43;;;22.50;99.90;;;;;;5008845;28;20223;-76
2023/08/22 03:58:40;;;;;;;13.60;8.43;;;22.50;99.90;;;;;;5007299;28;20503;-76
2023/08/22 04:01:06;;;;;;;9.03;7.67;;;22.70;99.90;;;;;;5006478;28;20247;-75
2023/08/22 04:03:31;;;;;;;8.80;8.10;;;22.90;99.90;;;;;;5006301;28;20224;-75
2023/08/22 04:05:59;;;;;;;9.03;8.13;;;23.00;99.90;;;;;;5022372;28;20350;-75
2023/08/22 04:08:25;;;;;;;12.63;9.47;;;23.00;99.90;;;;;;5022812;28;20254;-75
2023/08/22 04:10:53;;;;;;;11.30;9.30;;;22.90;99.90;;;;;;5004731;28;20464;-76
2023/08/22 04:13:20;;;;;;;13.97;9.20;;;22.60;99.90;;;;;;5038284;28;20587;-76
2023/08/22 04:15:47;;;;;;;8.97;8.13;;;22.30;99.90;;;;;;5023452;28;20466;-76
2023/08/22 04:18:12;;;;;;;10.10;8.47;;;22.50;99.90;;;;;;5007669;28;20456;-76
2023/08/22 04:20:39;;;;;;;9.97;8.90;;;22.60;99.90;;;;;;5038808;28;20550;-75
2023/08/22 04:23:06;;;;;;;13.93;8.57;;;22.70;99.90;;;;;;5006951;28;20219;-76
2023/08/22 04:25:31;;;;;;;9.53;8.53;;;22.70;99.90;;;;;;5007198;28;20485;-76
2023/08/22 04:27:57;;;;;;;8.90;8.07;;;22.50;99.90;;;;;;5023867;28;20228;-75
2023/08/22 04:30:23;;;;;;;10.80;9.27;;;22.70;99.90;;;;;;5038153;28;20792;-75
2023/08/22 04:32:48;;;;;;;8.00;7.20;;;22.70;99.90;;;;;;5021197;28;20346;-75
2023/08/22 04:35:14;;;;;;;10.67;8.57;;;22.80;99.90;;;;;;5021824;28;20286;-75
2023/08/22 04:37:43;;;;;;;9.07;7.80;;;22.90;99.90;;;;;;4993851;28;20721;-75
2023/08/22 04:40:09;;;;;;;7.77;6.97;;;22.70;99.90;;;;;;5013128;28;20475;-75
2023/08/22 04:42:55;;;;;;;13.83;7.97;;;22.50;99.90;;;;;;4985812;28;20467;-75
2023/08/22 04:45:21;;;;;;;7.63;6.57;;;22.50;99.90;;;;;;5026552;28;20487;-75
2023/08/22 04:47:47;;;;;;;8.90;7.87;;;22.60;99.90;;;;;;5023557;28;20326;-75
2023/08/22 04:50:13;;;;;;;8.63;7.57;;;22.70;99.90;;;;;;5040950;28;20334;-75
2023/08/22 04:52:38;;;;;;;8.77;7.97;;;22.80;99.90;;;;;;5005342;28;20288;-75
2023/08/22 04:55:05;;;;;;;9.23;8.20;;;22.70;99.90;;;;;;5004574;28;20715;-75
2023/08/22 04:57:31;;;;;;;10.00;7.93;;;22.20;99.90;;;;;;5019613;28;20224;-75
2023/08/22 04:59:57;;;;;;;9.17;8.33;;;22.00;99.90;;;;;;5008074;28;20488;-75
2023/08/22 05:02:24;;;;;;;8.17;7.37;;;22.00;99.90;;;;;;5035790;28;20502;-75
2023/08/22 05:04:50;;;;;;;8.23;7.43;;;21.90;99.90;;;;;;4999376;28;20219;-76
2023/08/22 05:07:16;;;;;;;8.60;7.77;;;21.90;99.90;;;;;;4999260;28;20480;-75
2023/08/22 05:09:42;;;;;;;13.30;8.20;;;21.90;99.90;;;;;;5016504;28;20277;-76
2023/08/22 05:12:08;;;;;;;8.93;8.10;;;22.10;99.90;;;;;;5001836;28;20267;-76
2023/08/22 05:14:33;;;;;;;8.70;7.73;;;22.10;99.90;;;;;;5033780;28;20829;-74
2023/08/22 05:16:59;;;;;;;8.47;7.30;;;22.40;99.90;;;;;;5016390;28;20885;-76
2023/08/22 05:19:25;;;;;;;8.67;7.77;;;22.60;99.90;;;;;;5034704;28;21016;-76
2023/08/22 05:21:51;;;;;;;8.17;7.37;;;22.60;99.90;;;;;;5000121;28;20466;-76
2023/08/22 05:24:16;;;;;;;9.67;8.20;;;22.70;99.90;;;;;;4999218;28;20245;-75
2023/08/22 05:26:42;;;;;;;8.80;7.90;;;22.80;99.90;;;;;;5001486;28;20231;-75
2023/08/22 05:29:08;;;;;;;8.50;7.80;;;22.80;99.90;;;;;;5002055;28;20224;-75
2023/08/22 05:31:33;;;;;;;7.33;6.73;;;22.90;99.90;;;;;;5003572;28;20219;-75
2023/08/22 05:34:00;;;;;;;8.23;7.23;;;22.90;99.90;;;;;;5004679;28;20215;-75
2023/08/22 05:36:26;;;;;;;10.17;8.00;;;22.90;99.90;;;;;;5020231;28;20220;-75
2023/08/22 05:38:52;;;;;;;9.90;9.00;;;22.90;99.90;;;;;;4990017;28;20512;-75
2023/08/22 05:41:17;;;;;;;9.83;8.93;;;22.80;99.90;;;;;;4989364;28;20350;-74
2023/08/22 05:43:43;;;;;;;9.30;8.40;;;22.60;99.90;;;;;;5006762;28;20330;-75
2023/08/22 05:46:09;;;;;;;11.37;8.50;;;22.50;99.90;;;;;;4992663;28;20250;-75
2023/08/22 05:48:35;;;;;;;9.00;8.10;;;22.60;99.90;;;;;;4992762;28;20224;-75
2023/08/22 05:51:02;;;;;;;8.90;8.10;;;22.70;99.90;;;;;;4987348;28;20517;-75
2023/08/22 05:53:29;;;;;;;8.43;7.43;;;22.40;99.90;;;;;;5005856;28;20242;-75
2023/08/22 05:55:56;;;;;;;11.20;8.60;;;22.40;99.90;;;;;;4987182;28;20467;-74
2023/08/22 05:58:21;;;;;;;11.57;9.00;;;22.40;99.90;;;;;;4985974;28;20467;-74
2023/08/22 06:00:49;;;;;;;9.03;8.33;;;22.20;99.90;;;;;;4983997;28;20478;-75
2023/08/22 06:03:14;;;;;;;8.80;8.00;;;22.30;99.90;;;;;;5001720;28;20509;-75
2023/08/22 06:05:41;;;;;;;11.10;8.40;;;22.50;99.90;;;;;;4983102;28;20216;-75
2023/08/22 06:08:07;;;;;;;11.97;7.77;;;22.40;99.90;;;;;;4998170;28;21085;-75
2023/08/22 06:10:32;;;;;;;8.43;7.63;;;22.60;99.90;;;;;;5000188;28;20290;-76
2023/08/22 06:12:58;;;;;;;9.20;7.40;;;22.60;99.90;;;;;;4982782;28;20238;-76
2023/08/22 06:15:24;;;;;;;9.37;8.47;;;22.60;99.90;;;;;;4981912;28;20359;-75
2023/08/22 06:17:49;;;;;;;8.27;7.43;;;22.70;99.90;;;;;;4971000;28;20371;-75
2023/08/22 06:20:15;;;;;;;13.70;8.57;;;22.70;99.90;;;;;;5005239;28;20222;-76
2023/08/22 06:22:41;;;;;;;7.80;7.13;;;22.80;99.90;;;;;;4986954;28;20720;-75
2023/08/22 06:25:07;;;;;;;7.60;7.00;;;22.80;99.90;;;;;;5003495;28;20465;-76
2023/08/22 06:27:33;;;;;;;8.87;7.83;;;22.70;99.90;;;;;;4990273;28;20257;-75
2023/08/22 06:30:01;;;;;;;8.83;7.37;;;22.60;99.90;;;;;;4987121;28;20482;-75
2023/08/22 06:32:30;;;;;;;8.63;7.73;;;22.60;99.90;;;;;;4986038;28;21234;-76
2023/08/22 06:34:59;;;;;;;8.93;7.70;;;22.70;99.90;;;;;;4988689;28;20482;-75
2023/08/22 06:37:25;;;;;;;8.63;6.87;;;22.70;99.90;;;;;;5005197;28;20673;-74
2023/08/22 06:39:52;;;;;;;7.20;6.50;;;22.60;99.90;;;;;;4989486;28;20478;-74
2023/08/22 06:42:18;;;;;;;8.70;8.00;;;22.70;99.90;;;;;;5005646;28;20612;-75
2023/08/22 06:44:48;;;;;;;11.43;7.87;;;22.70;99.90;;;;;;4992689;28;20584;-75
2023/08/22 06:47:15;;;;;;;8.40;7.47;;;22.80;99.90;;;;;;4990626;28;20566;-75
2023/08/22 06:49:41;;;;;;;11.57;7.60;;;22.80;99.90;;;;;;4990727;28;20481;-75
2023/08/22 06:52:06;;;;;;;8.30;7.50;;;22.90;99.90;;;;;;4991763;28;20230;-73
2023/08/22 06:54:32;;;;;;;11.93;7.70;;;22.80;99.90;;;;;;5007250;28;20258;-75
2023/08/22 06:56:58;;;;;;;9.90;6.93;;;22.90;99.90;;;;;;5009746;28;20227;-75
2023/08/22 06:59:24;;;;;;;7.90;7.20;;;23.00;99.90;;;;;;5009305;28;20233;-75
2023/08/22 07:01:49;;;;;;;7.20;6.50;;;23.00;99.90;;;;;;5011220;28;20465;-75
2023/08/22 07:04:15;;;;;;;8.17;7.23;;;23.10;99.90;;;;;;4995276;28;20694;-75
2023/08/22 07:06:41;;;;;;;7.07;6.47;;;23.20;99.90;;;;;;5010010;28;21034;-75
2023/08/22 07:09:06;;;;;;;7.20;6.60;;;23.20;99.90;;;;;;5003715;28;20223;-75
2023/08/22 07:11:32;;;;;;;7.83;7.03;;;23.40;99.90;;;;;;4995773;28;20215;-75
2023/08/22 07:13:58;;;;;;;7.50;6.83;;;23.40;99.90;;;;;;4991832;28;20318;-76
2023/08/22 07:16:23;;;;;;;7.13;6.37;;;23.50;99.90;;;;;;4992391;28;20337;-76
2023/08/22 07:18:49;;;;;;;6.87;6.27;;;23.60;99.90;;;;;;4989228;28;20241;-74
2023/08/22 07:21:15;;;;;;;7.50;6.80;;;23.60;99.90;;;;;;4992806;28;20464;-73
2023/08/22 07:23:41;;;;;;;7.57;6.73;;;23.60;99.90;;;;;;5004151;28;20222;-74
2023/08/22 07:26:07;;;;;;;8.63;7.83;;;23.70;99.90;;;;;;4988609;28;20266;-74
2023/08/22 07:28:33;;;;;;;9.77;7.10;;;23.70;99.90;;;;;;4993515;28;20227;-75
2023/08/22 07:31:00;;;;;;;7.13;6.53;;;23.80;99.90;;;;;;4989456;28;20472;-75
2023/08/22 07:33:25;;;;;;;7.20;6.60;;;23.90;99.90;;;;;;5007202;28;20215;-75
2023/08/22 07:35:52;;;;;;;7.37;6.67;;;24.00;99.90;;;;;;5011000;28;20468;-75
2023/08/22 07:38:18;;;;;;;9.70;6.67;;;24.10;99.90;;;;;;4995734;28;20222;-75
2023/08/22 07:40:43;;;;;;;10.20;6.67;;;24.20;99.90;;;;;;4993409;28;20466;-75
2023/08/22 07:43:09;;;;;;;7.73;7.00;;;24.30;99.90;;;;;;5011179;28;20890;-73
2023/08/22 07:45:35;;;;;;;6.70;6.10;;;24.30;99.90;;;;;;4995730;28;20327;-75
2023/08/22 07:48:00;;;;;;;7.43;6.47;;;24.40;99.90;;;;;;5008594;28;20242;-74
2023/08/22 07:50:26;;;;;;;8.83;6.90;;;24.40;99.90;;;;;;4991229;28;20261;-75
2023/08/22 07:52:52;;;;;;;6.80;6.20;;;24.40;99.90;;;;;;4992966;28;20953;-75
2023/08/22 07:55:17;;;;;;;7.93;7.23;;;24.50;99.90;;;;;;4991658;28;20227;-75
2023/08/22 07:57:43;;;;;;;11.30;6.77;;;24.60;99.90;;;;;;5007808;28;20793;-74
2023/08/22 08:00:11;;;;;;;9.57;7.90;;;24.60;99.90;;;;;;5006403;28;20418;-75
2023/08/22 08:02:40;;;;;;;7.17;6.47;;;24.70;99.90;;;;;;4989832;28;20223;-75
2023/08/22 08:05:06;;;;;;;8.80;7.80;;;24.90;99.90;;;;;;4972793;28;20474;-75
2023/08/22 08:07:32;;;;;;;6.80;6.10;;;25.00;99.90;;;;;;4971997;28;20486;-77
2023/08/22 08:09:58;;;;;;;6.70;5.90;;;25.00;99.90;;;;;;5008416;28;20509;-75
2023/08/22 08:12:24;;;;;;;7.53;6.80;;;25.00;99.90;;;;;;4990402;28;20489;-75
2023/08/22 08:14:50;;;;;;;7.27;6.57;;;25.00;99.90;;;;;;5008943;28;20250;-74
2023/08/22 08:17:19;;;;;;;7.37;6.77;;;25.10;99.90;;;;;;4956985;28;20318;-75
2023/08/22 08:19:45;;;;;;;7.10;6.40;;;25.20;99.90;;;;;;4975497;28;20257;-76
2023/08/22 08:22:11;;;;;;;8.23;7.00;;;25.30;99.90;;;;;;5005705;28;20475;-75
2023/08/22 08:24:37;;;;;;;7.43;6.70;;;25.40;99.90;;;;;;4989940;28;20475;-75
2023/08/22 08:27:03;;;;;;;6.77;6.13;;;25.50;99.90;;;;;;4976507;28;20217;-75
2023/08/22 08:29:29;;;;;;;7.70;6.90;;;25.60;99.90;;;;;;4972467;28;20481;-75
2023/08/22 08:31:56;;;;;;;9.03;7.83;;;25.70;99.90;;;;;;4990555;28;20480;-75
2023/08/22 08:34:23;;;;;;;10.00;6.67;;;25.70;99.90;;;;;;4990759;28;20306;-75
2023/08/22 08:36:52;;;;;;;9.60;6.50;;;26.00;99.90;;;;;;5007702;28;20482;-76
2023/08/22 08:39:18;;;;;;;6.90;6.30;;;26.10;99.90;;;;;;4972437;28;20593;-76
2023/08/22 08:42:06;;;;;;;8.03;7.30;;;26.10;99.90;;;;;;4989978;28;20475;-75
2023/08/22 08:44:33;;;;;;;7.27;6.67;;;26.10;99.90;;;;;;4988132;28;20571;-75
2023/08/22 08:47:00;;;;;;;8.40;6.50;;;26.40;99.90;;;;;;4991291;28;20493;-75
2023/08/22 08:49:26;;;;;;;7.60;6.57;;;26.70;99.90;;;;;;4983791;28;20471;-75
2023/08/22 08:51:52;;;;;;;10.73;6.90;;;26.80;99.90;;;;;;4989859;28;20566;-76
2023/08/22 08:54:21;;;;;;;6.40;5.90;;;26.80;99.90;;;;;;4992728;28;21069;-76
2023/08/22 08:56:47;;;;;;;8.13;7.33;;;27.00;99.90;;;;;;4990798;28;20474;-74
2023/08/22 08:59:13;;;;;;;7.83;7.10;;;27.10;99.90;;;;;;4988296;28;20556;-75
2023/08/22 09:01:43;;;;;;;7.53;6.83;;;27.00;99.90;;;;;;4987994;28;20216;-76
2023/08/22 09:04:10;;;;;;;8.40;7.13;;;27.10;99.90;;;;;;4991511;28;20228;-75
2023/08/22 09:06:39;;;;;;;7.55;6.90;;;27.10;99.90;;;;;;4990491;28;20556;-76
2023/08/22 09:09:08;;;;;;;7.38;6.60;;;27.00;99.90;;;;;;4988920;28;20220;-76
2023/08/22 09:11:34;;;;;;;8.40;7.60;;;27.00;99.90;;;;;;4974858;28;20221;-76
2023/08/22 09:14:00;;;;;;;7.43;6.83;;;27.00;99.90;;;;;;5006350;28;20479;-76
2023/08/22 09:16:27;;;;;;;8.83;6.80;;;27.10;99.90;;;;;;5005097;28;20224;-75
2023/08/22 09:19:01;;;;;;;7.60;6.90;;;27.30;99.90;;;;;;4990742;28;20227;-76
2023/08/22 09:21:28;;;;;;;7.77;6.60;;;27.30;99.90;;;;;;4990518;28;20228;-76
2023/08/22 09:24:08;;;;;;;7.23;6.53;;;27.40;99.90;;;;;;4989226;28;21201;-76
2023/08/22 09:26:34;;;;;;;7.45;6.85;;;27.60;99.90;;;;;;4989617;28;20230;-76
2023/08/22 09:29:05;;;;;;;7.70;6.90;;;27.80;99.90;;;;;;4994252;28;20592;-75
2023/08/22 09:31:32;;;;;;;7.63;6.90;;;27.90;99.90;;;;;;4992204;28;20249;-76
2023/08/22 09:33:58;;;;;;;7.07;6.38;;;27.90;99.90;;;;;;4990817;28;20285;-75
2023/08/22 09:36:24;;;;;;;6.05;5.55;;;27.90;99.90;;;;;;4993532;28;20247;-76
2023/08/22 09:38:57;;;;;;;7.82;7.13;;;28.10;99.90;;;;;;4991960;28;21021;-77
2023/08/22 09:41:25;;;;;;;8.55;6.95;;;28.30;99.90;;;;;;4990224;28;20219;-76
2023/08/22 09:43:55;;;;;;;8.25;6.57;;;28.50;99.90;;;;;;4991744;28;20868;-76
2023/08/22 09:46:24;;;;;;;6.68;6.18;;;28.30;99.90;;;;;;5008462;28;20737;-76
2023/08/22 09:48:50;;;;;;;7.13;6.53;;;28.40;99.90;;;;;;4994023;28;20714;-76
2023/08/22 09:51:22;;;;;;;7.22;6.53;;;28.40;99.90;;;;;;4993982;28;20224;-76
2023/08/22 09:53:52;;;;;;;7.93;7.05;;;28.60;99.90;;;;;;4992512;28;20235;-75
2023/08/22 09:56:21;;;;;;;7.00;6.30;;;28.60;99.90;;;;;;4995342;28;20235;-77
2023/08/22 09:58:47;;;;;;;9.02;7.60;;;28.40;99.90;;;;;;4989376;28;20306;-76
2023/08/22 10:01:16;;;;;;;6.35;5.75;;;28.30;99.90;;;;;;4973303;28;20246;-75
2023/08/22 10:03:46;;;;;;;7.28;6.72;;;28.20;99.90;;;;;;5006457;28;20273;-76
2023/08/22 10:06:14;;;;;;;6.53;6.05;;;28.30;99.90;;;;;;5007890;28;20231;-76
2023/08/22 10:08:45;;;;;;;7.13;6.53;;;28.40;99.90;;;;;;5006975;28;20354;-77
2023/08/22 10:11:17;;;;;;;7.05;6.35;;;28.50;99.90;;;;;;5008346;28;20267;-75
2023/08/22 10:13:44;;;;;;;10.18;7.32;;;28.40;99.90;;;;;;5008325;28;20956;-76
2023/08/22 10:16:10;;;;;;;6.22;5.78;;;28.60;99.90;;;;;;4989798;28;20805;-76
2023/08/22 10:18:36;;;;;;;7.00;6.30;;;28.70;99.90;;;;;;4992211;28;20235;-76
2023/08/22 10:21:04;;;;;;;7.38;6.65;;;28.90;99.90;;;;;;4996287;28;20219;-76
2023/08/22 10:23:51;;;;;;;8.95;6.55;;;28.80;99.90;;;;;;5010918;28;20251;-76
2023/08/22 10:26:22;;;;;;;7.35;6.45;;;28.70;99.90;;;;;;4991021;28;20258;-75
2023/08/22 10:29:16;;;;;;;6.05;5.60;;;28.80;99.90;;;;;;4994385;28;20219;-76
2023/08/22 10:32:00;;;;;;;6.50;5.97;;;29.30;99.90;;;;;;4997469;28;20246;-76
2023/08/22 10:34:47;;;;;;;6.45;5.85;;;29.30;99.90;;;;;;4980883;28;20227;-76
2023/08/22 10:37:20;;;;;;;7.95;7.15;;;29.20;99.90;;;;;;4976730;28;20413;-75
2023/08/22 10:39:48;;;;;;;6.72;6.15;;;28.70;99.90;;;;;;4991872;28;20220;-76
2023/08/22 10:42:17;;;;;;;6.45;5.75;;;28.60;99.90;;;;;;4999721;28;20223;-75
2023/08/22 10:44:50;;;;;;;6.75;6.20;;;28.90;99.90;;;;;;4998094;28;20227;-76
2023/08/22 10:47:17;;;;;;;8.13;6.53;;;29.30;99.90;;;;;;5019288;28;20239;-76
2023/08/22 10:49:43;;;;;;;7.20;6.60;;;29.80;99.90;;;;;;4984483;28;20706;-76
2023/08/22 10:52:10;;;;;;;7.32;6.53;;;29.90;99.90;;;;;;4999674;28;20230;-76
2023/08/22 10:54:59;;;;;;;7.93;5.93;;;30.00;99.90;;;;;;4983631;28;20223;-76
2023/08/22 10:57:36;;;;;;;6.30;5.68;;;29.70;99.90;;;;;;4989607;28;20232;-76
2023/08/22 11:00:19;;;;;;;5.43;4.93;;;29.50;99.90;;;;;;5015405;28;20241;-77
2023/08/22 11:02:49;;;;;;;5.97;5.47;;;29.40;99.90;;;;;;5012618;28;20228;-76
2023/08/22 11:05:15;;;;;;;5.68;5.28;;;29.80;99.90;;;;;;5001920;28;20241;-76
2023/08/22 11:07:44;;;;;;;5.18;4.78;;;30.00;99.90;;;;;;5014453;28;20232;-78
2023/08/22 11:10:18;;;;;;;6.28;5.78;;;30.10;99.90;;;;;;4996672;28;20224;-76
2023/08/22 11:12:45;;;;;;;6.72;6.13;;;30.10;99.90;;;;;;4986761;28;20227;-77
2023/08/22 11:15:14;;;;;;;5.72;5.22;;;30.30;99.90;;;;;;4980866;28;20228;-77
2023/08/22 11:17:40;;;;;;;5.80;5.30;;;30.40;99.90;;;;;;5005295;28;20227;-76
2023/08/22 11:20:14;;;;;;;7.00;6.30;;;30.20;99.90;;;;;;5002597;28;20223;-77
2023/08/22 11:22:40;;;;;;;5.85;5.35;;;30.10;99.90;;;;;;5006631;28;20222;-76
2023/08/22 11:25:06;;;;;;;6.25;5.40;;;30.30;99.90;;;;;;5018562;28;20215;-77
2023/08/22 11:27:32;;;;;;;5.60;5.10;;;30.50;99.90;;;;;;4988641;28;20725;-75
2023/08/22 11:29:58;;;;;;;5.85;5.35;;;30.40;99.90;;;;;;5006744;28;20240;-76
2023/08/22 11:32:27;;;;;;;5.80;5.28;;;30.70;99.90;;;;;;5004351;28;20233;-76
2023/08/22 11:34:55;;;;;;;6.30;4.95;;;30.80;99.90;;;;;;5004173;28;20310;-76
2023/08/22 11:37:21;;;;;;;5.35;4.95;;;30.60;99.90;;;;;;5023171;28;20224;-75
2023/08/22 11:39:51;;;;;;;6.53;5.93;;;30.40;99.90;;;;;;5021793;28;20231;-76
2023/08/22 11:42:18;;;;;;;5.97;5.57;;;30.40;99.90;;;;;;5019772;28;20222;-76
2023/08/22 11:45:03;;;;;;;6.72;5.80;;;30.50;99.90;;;;;;5003648;28;20479;-77
2023/08/22 11:47:43;;;;;;;6.18;5.68;;;30.30;99.90;;;;;;5007115;28;20227;-75
2023/08/22 11:50:14;;;;;;;6.28;5.68;;;30.10;99.90;;;;;;5004228;28;20702;-76
2023/08/22 11:52:44;;;;;;;6.70;6.20;;;30.40;99.90;;;;;;5007251;28;20234;-76
2023/08/22 11:55:11;;;;;;;6.30;5.80;;;30.60;99.90;;;;;;5022854;28;20987;-76
2023/08/22 11:57:41;;;;;;;6.22;5.60;;;30.50;99.90;;;;;;5005047;28;20833;-75
2023/08/22 12:00:10;;;;;;;6.85;5.90;;;30.50;99.90;;;;;;5002792;28;20229;-76
2023/08/22 12:02:59;;;;;;;6.68;6.10;;;30.10;99.90;;;;;;5001475;28;20301;-75
2023/08/22 12:05:48;;;;;;;5.70;5.30;;;29.90;99.90;;;;;;5020417;28;20226;-76
2023/08/22 12:08:13;;;;;;;6.40;5.90;;;30.10;99.90;;;;;;4989079;28;20943;-75
2023/08/22 12:10:44;;;;;;;5.90;5.40;;;30.70;99.90;;;;;;4982456;28;20224;-76
2023/08/22 12:13:11;;;;;;;8.45;7.70;;;31.00;99.90;;;;;;5000401;28;20235;-75
2023/08/22 12:15:37;;;;;;;7.72;5.75;;;30.80;99.90;;;;;;4982607;28;20246;-77
2023/08/22 12:18:04;;;;;;;5.88;5.30;;;30.80;99.90;;;;;;4983810;28;20255;-76
2023/08/22 12:20:34;;;;;;;5.82;5.40;;;31.10;99.90;;;;;;4984138;28;20228;-77
2023/08/22 12:23:03;;;;;;;6.63;6.07;;;30.60;99.90;;;;;;4985506;28;20220;-75
2023/08/22 12:25:29;;;;;;;6.88;6.18;;;30.60;99.90;;;;;;4984977;28;20219;-77
2023/08/22 12:27:54;;;;;;;6.72;6.07;;;30.70;99.90;;;;;;4982369;28;20378;-76
2023/08/22 12:30:20;;;;;;;5.95;5.40;;;30.80;99.90;;;;;;4985796;28;20343;-76
2023/08/22 12:32:46;;;;;;;6.97;6.47;;;30.70;99.90;;;;;;4984350;28;20232;-76
2023/08/22 12:35:12;;;;;;;6.38;5.88;;;30.60;99.90;;;;;;5001722;28;20239;-76
2023/08/22 12:37:39;;;;;;;5.80;5.28;;;30.60;99.90;;;;;;4985972;28;20261;-75
2023/08/22 12:40:10;;;;;;;6.47;6.07;;;30.60;99.90;;;;;;4981761;28;20227;-76
2023/08/22 12:42:39;;;;;;;6.50;6.00;;;30.70;99.90;;;;;;5015408;28;20250;-77
2023/08/22 12:45:09;;;;;;;5.82;5.45;;;30.70;99.90;;;;;;5022315;28;20219;-76